North Baltimore, Ohio
Current Conditions -  °F | °C
As of 9:53 PM on Thursday 18 Dec 2014 (Local Time) from KFDY Reporting Station
Overcast Overcast  
Wind Chill: 20°   Ceiling: 2500
Heat Index: 29°   Visibility: 8mi
Dew Point: 24°   Wind: 9mph
Humidity: 82%   Direction: 270°W
Pressure: 30.19"   Gusts: NA
Location:  41.18°N, 83.68°W
Report Text: KFDY 190253Z AUTO 27008KT 8SM OVC025 M02/M04 A3019 RMK AO2 SLP231 T10171044 50000
Loading
Personal Weather Stations






























Interactive Weather Map New forecast layout! Learn more

10-Day Weather Forecast

Advertisements
Track Severe Weather on mobile